Terminal Aerodrome Forecast
Issued by NWS

Home | Current Version | Previous Version | Text Only | Print | Product List | Glossary On
Versions: 1 2 3 4 5 6 7 8 9 10 11 12 13 14 15 16 17 18 19 20 21 22 23 24 25 26
000
FTAK31 PAFA 121738
TAFAMC
TAF
PAMC 121738Z 1218/1318 14003KT P6SM FEW004 SCT070 BKN100
     FM122100 20006KT P6SM VCSH SCT060 BKN080
     FM130600 VRB03KT P6SM BKN100=

USA.gov is the U.S. government's official web portal to all federal, state and local government web resources and services.